Date,TemperatureHighF,TemperatureAvgF,TemperatureLowF,DewpointHighF,DewpointAvgF,DewpointLowF,HumidityHigh,HumidityAvg,HumidityLow,PressureMaxIn,PressureMinIn,WindSpeedMaxMPH,WindSpeedAvgMPH,GustSpeedMaxMPH,PrecipitationSumIn
2013-8-1,81,68,61,54,46,38,57,46,35,0.00,40.00,0,0,8,0.00
2013-8-2,79,70,62,49,45,41,48,42,35,0.00,40.00,9,0,12,2.17
2013-8-3,79,69,57,52,45,33,53,43,36,0.00,40.00,12,0,12,0.00
2013-8-4,77,64,55,48,39,32,47,40,36,0.00,40.00,8,0,12,0.00
2013-8-5,73,64,53,45,39,31,44,39,36,0.00,40.00,8,0,11,0.00
2013-8-6,80,70,63,50,44,38,47,40,35,0.00,40.00,4,0,8,0.43
2013-8-7,85,72,68,54,48,43,50,42,34,0.00,40.00,10,0,12,0.47
2013-8-8,79,69,63,49,45,38,53,42,35,0.00,40.00,5,0,12,0.00
2013-8-9,81,69,60,51,43,36,45,38,35,0.00,40.00,5,0,11,0.00
2013-8-10,82,71,61,52,44,36,45,38,34,0.00,40.00,10,0,11,0.00
2013-8-11,81,68,57,51,42,34,43,38,35,0.00,40.00,11,0,11,0.00
2013-8-12,83,72,64,52,44,38,40,37,34,0.00,40.00,10,0,12,0.00
2013-8-13,70,63,52,43,38,29,46,41,37,0.00,40.00,15,2,20,0.00
2013-8-14,72,58,46,44,34,25,44,40,37,0.00,40.00,9,0,12,0.00
2013-8-15,75,60,48,46,36,27,45,40,36,0.00,40.00,10,0,15,0.00
2013-8-16,81,64,52,50,39,30,46,40,35,0.00,40.00,6,0,10,0.00
2013-8-17,81,66,54,50,40,31,45,39,35,0.00,40.00,6,0,10,0.00
2013-8-18,85,67,56,53,41,33,45,39,34,0.00,40.00,0,0,11,0.00
2013-8-19,84,69,57,53,43,34,45,39,34,0.00,40.00,7,0,10,0.00
2013-8-20,85,72,63,53,45,39,47,39,34,0.00,40.00,8,0,11,0.00
2013-8-21,88,75,66,56,47,40,42,37,33,0.00,40.00,8,1,17,0.00
2013-8-22,75,70,66,50,45,41,45,41,36,0.00,40.00,8,0,13,0.79
2013-8-23,83,70,61,53,46,36,55,42,34,0.00,40.00,7,0,7,0.00
2013-8-24,84,67,55,53,41,33,46,39,34,0.00,40.00,6,0,7,0.00
2013-8-25,87,72,58,55,44,35,43,38,34,0.00,40.00,8,0,16,0.00
2013-8-26,87,74,63,56,46,38,39,36,34,0.00,40.00,6,0,12,0.00
2013-8-27,91,79,70,58,50,44,40,36,32,0.00,40.00,12,1,16,0.00
2013-8-28,84,77,70,52,48,44,40,36,34,0.00,40.00,12,0,12,0.00
2013-8-29,89,74,64,56,48,42,50,40,33,0.00,40.00,0,0,0,0.00
2013-8-30,92,77,67,58,49,43,47,38,32,0.00,40.00,12,1,16,0.00
2013-8-31,80,72,68,50,46,43,42,39,35,0.00,40.00,8,0,8,0.04